Time;durP1;ratioP1;P1;durP2;ratioP2;P2;SDS_P1;SDS_P2;PMS_P1;PMS_P2;Temp;Humidity;BMP_temperature;BMP_pressure;BME280_temperature;BME280_humidity;BME280_pressure;Samples;Min_cycle;Max_cycle;Signal;HPM_P1;HPM_P2
2020/12/18 00:02:23;;;;;;;24.13;17.33;;;;;;;5.88;96.02;101303.53;4989294;28;20046;-88
2020/12/18 00:04:56;;;;;;;22.38;17.20;;;;;;;5.92;96.01;101307.00;5028479;28;20163;-88
2020/12/18 00:07:29;;;;;;;25.35;17.65;;;;;;;5.91;96.08;101307.91;4989373;28;20076;-89
2020/12/18 00:09:56;;;;;;;24.95;17.95;;;;;;;5.98;96.04;101307.78;5023893;28;20153;-88
2020/12/18 00:12:29;;;;;;;24.35;17.10;;;;;;;6.01;96.24;101312.13;4999997;28;20117;-89
2020/12/18 00:14:57;;;;;;;22.95;17.00;;;;;;;6.04;96.09;101313.84;5008186;28;20054;-88
2020/12/18 00:17:32;;;;;;;25.30;18.23;;;;;;;6.05;96.13;101308.56;5009633;28;20046;-88
2020/12/18 00:20:04;;;;;;;23.27;17.00;;;;;;;6.07;95.21;101303.31;5014212;28;20121;-88
2020/12/18 00:22:31;;;;;;;21.85;15.88;;;;;;;6.11;95.44;101305.00;4991988;28;20081;-88
2020/12/18 00:24:58;;;;;;;21.35;16.00;;;;;;;6.12;95.71;101285.72;4998805;28;20061;-88
2020/12/18 00:27:25;;;;;;;21.83;15.90;;;;;;;6.13;95.74;101287.44;5003360;28;20156;-88
2020/12/18 00:29:53;;;;;;;21.30;15.63;;;;;;;6.18;96.04;101299.63;5008004;28;20047;-88
2020/12/18 00:32:21;;;;;;;23.70;16.40;;;;;;;6.18;95.62;101288.22;5018527;28;20132;-88
2020/12/18 00:34:48;;;;;;;26.50;16.25;;;;;;;6.12;96.24;101270.81;5002501;28;20500;-88
2020/12/18 00:37:15;;;;;;;23.38;16.00;;;;;;;6.17;96.39;101283.84;5027139;28;20043;-88
2020/12/18 00:39:41;;;;;;;21.38;15.68;;;;;;;6.17;96.53;101275.97;5018134;28;20163;-88
2020/12/18 00:42:09;;;;;;;25.52;15.10;;;;;;;6.17;96.78;101275.97;5023691;28;20065;-88
2020/12/18 00:44:36;;;;;;;19.25;15.02;;;;;;;6.16;96.80;101269.84;5024692;28;20048;-88
2020/12/18 00:47:04;;;;;;;22.70;15.82;;;;;;;6.17;96.83;101262.81;5020301;28;20050;-88
2020/12/18 00:49:30;;;;;;;24.17;15.10;;;;;;;6.20;96.60;101281.19;5020057;28;20042;-87
2020/12/18 00:51:57;;;;;;;20.63;14.60;;;;;;;6.16;96.67;101267.22;5010739;28;20054;-88
2020/12/18 00:54:26;;;;;;;23.80;14.77;;;;;;;6.23;96.87;101275.88;5008715;28;20076;-88
2020/12/18 00:56:55;;;;;;;21.75;14.65;;;;;;;6.21;96.54;101267.16;5009741;28;20037;-88
2020/12/18 00:59:22;;;;;;;22.33;15.40;;;;;;;6.24;96.87;101280.25;5005751;28;20398;-88
2020/12/18 01:02:02;;;;;;;22.60;14.63;;;;;;;6.22;96.33;101284.66;5016280;28;20446;-87
2020/12/18 01:04:30;;;;;;;22.73;14.45;;;;;;;6.15;96.58;101269.84;5034526;28;20057;-88
2020/12/18 01:06:57;;;;;;;19.13;14.10;;;;;;;6.16;96.79;101276.84;5036944;28;20056;-88
2020/12/18 01:09:24;;;;;;;20.33;14.15;;;;;;;6.18;96.56;101280.34;5031202;28;20479;-89
2020/12/18 01:11:52;;;;;;;23.35;15.70;;;;;;;6.11;96.88;101279.56;5037473;28;20038;-88
2020/12/18 01:14:20;;;;;;;20.40;13.93;;;;;;;6.15;96.79;101283.88;5000785;28;20064;-87
2020/12/18 01:16:54;;;;;;;20.85;15.32;;;;;;;6.15;97.13;101297.03;5004495;28;20049;-88
2020/12/18 01:19:26;;;;;;;24.25;17.20;;;;;;;6.07;95.96;101296.28;5004491;28;20691;-88
2020/12/18 01:21:53;;;;;;;25.90;18.98;;;;;;;5.94;94.71;101292.97;5010199;28;20052;-88
2020/12/18 01:24:29;;;;;;;23.05;17.35;;;;;;;5.82;93.74;101303.63;5023259;28;20107;-89
2020/12/18 01:27:00;;;;;;;26.40;18.25;;;;;;;5.70;93.67;101306.38;5022644;28;20049;-89
2020/12/18 01:29:28;;;;;;;25.80;17.75;;;;;;;5.57;92.81;101303.03;4999781;28;20046;-88
2020/12/18 01:31:55;;;;;;;24.23;17.45;;;;;;;5.51;92.64;101307.50;4983097;28;20120;-89
2020/12/18 01:34:22;;;;;;;22.70;17.08;;;;;;;5.47;92.72;101318.94;4984030;28;20051;-88
2020/12/18 01:36:49;;;;;;;23.75;18.00;;;;;;;5.44;92.04;101322.47;5019269;28;20062;-88
2020/12/18 01:39:18;;;;;;;26.10;18.65;;;;;;;5.34;92.11;101322.59;5044000;28;20073;-88
2020/12/18 01:41:48;;;;;;;26.70;18.52;;;;;;;5.34;92.37;101323.47;5039353;28;20058;-88
2020/12/18 01:44:15;;;;;;;27.40;18.60;;;;;;;5.36;92.07;101332.16;5028120;28;20042;-88
2020/12/18 01:46:50;;;;;;;23.65;18.50;;;;;;;5.38;92.47;101332.16;5019488;28;20450;-88
2020/12/18 01:49:16;;;;;;;26.10;18.70;;;;;;;5.41;92.93;101338.25;5025600;28;20451;-88
2020/12/18 01:51:49;;;;;;;25.75;18.23;;;;;;;5.44;92.52;101335.59;5023914;28;20465;-87
2020/12/18 01:54:18;;;;;;;27.20;17.98;;;;;;;5.43;92.60;101333.84;5026361;28;20061;-88
2020/12/18 01:56:48;;;;;;;25.55;18.95;;;;;;;5.46;92.45;101339.06;5040069;28;20057;-88
2020/12/18 01:59:18;;;;;;;25.98;18.50;;;;;;;5.45;93.05;101334.72;5002926;28;20057;-89
2020/12/18 02:04:26;;;;;;;26.08;17.95;;;;;;;5.53;93.30;101331.97;5022932;23;20128;-76
2020/12/18 02:06:57;;;;;;;24.95;18.33;;;;;;;5.57;93.25;101333.69;4965375;28;20058;-77
2020/12/18 02:09:24;;;;;;;23.65;17.58;;;;;;;5.57;92.45;101320.56;4972321;28;20142;-78
2020/12/18 02:11:53;;;;;;;24.90;17.73;;;;;;;5.54;92.30;101333.72;4971188;28;20055;-76
2020/12/18 02:14:20;;;;;;;23.95;17.45;;;;;;;5.57;92.82;101323.19;4992514;28;20058;-78
2020/12/18 02:16:47;;;;;;;24.23;17.48;;;;;;;5.53;92.82;101330.22;4985347;28;20517;-74
2020/12/18 02:19:17;;;;;;;25.20;17.75;;;;;;;5.54;92.95;101315.31;4986745;28;20038;-76
2020/12/18 02:22:15;;;;;;;28.60;17.80;;;;;;;5.57;93.32;101317.94;4992091;28;20494;-76
2020/12/18 02:24:50;;;;;;;24.00;17.52;;;;;;;5.55;93.10;101306.56;4983357;28;20077;-77
2020/12/18 02:27:18;;;;;;;26.33;17.85;;;;;;;5.60;93.81;101305.63;4988192;28;20046;-77
2020/12/18 02:29:45;;;;;;;23.90;17.42;;;;;;;5.64;94.10;101312.59;4989186;28;20556;-76
2020/12/18 02:32:11;;;;;;;25.38;17.60;;;;;;;5.70;94.52;101309.00;4984821;28;20125;-78
2020/12/18 02:34:38;;;;;;;23.45;16.10;;;;;;;5.77;94.39;101315.06;4991928;28;20056;-77
2020/12/18 02:37:04;;;;;;;23.17;17.08;;;;;;;5.81;94.67;101301.88;4993462;28;20708;-77
2020/12/18 02:39:31;;;;;;;21.50;15.63;;;;;;;5.86;94.59;101300.03;4985608;28;20126;-77
2020/12/18 02:41:57;;;;;;;25.08;16.88;;;;;;;5.92;94.66;101305.25;4995520;28;20049;-77
2020/12/18 02:44:23;;;;;;;22.67;15.18;;;;;;;6.01;94.81;101298.13;4989254;28;20051;-77
2020/12/18 02:46:50;;;;;;;22.88;15.88;;;;;;;6.06;94.92;101302.44;5000956;28;20054;-77
2020/12/18 02:49:16;;;;;;;22.35;15.85;;;;;;;6.14;95.21;101305.81;4995600;28;20415;-76
2020/12/18 02:51:43;;;;;;;21.95;16.33;;;;;;;6.16;95.34;101309.28;4995279;28;20464;-74
2020/12/18 02:54:10;;;;;;;25.55;16.00;;;;;;;6.22;95.50;101303.94;4993636;28;20065;-75
2020/12/18 02:56:37;;;;;;;21.02;16.05;;;;;;;6.24;95.01;101307.44;4994865;28;20056;-75
2020/12/18 02:59:04;;;;;;;24.85;15.93;;;;;;;6.26;95.78;101307.41;4977614;28;20046;-78
2020/12/18 03:01:30;;;;;;;22.55;15.95;;;;;;;6.28;95.81;101303.88;4994881;28;20127;-77
2020/12/18 03:03:56;;;;;;;22.08;15.85;;;;;;;6.29;95.48;101315.25;5004282;28;20038;-78
2020/12/18 03:06:23;;;;;;;23.13;16.30;;;;;;;6.29;95.62;101310.88;5013369;28;20244;-78
2020/12/18 03:08:49;;;;;;;29.02;17.92;;;;;;;6.32;95.86;101315.19;4998306;28;20042;-77
2020/12/18 03:11:16;;;;;;;30.58;18.85;;;;;;;6.32;95.81;101315.19;5012614;28;20679;-77
2020/12/18 03:13:47;;;;;;;26.95;18.23;;;;;;;6.34;95.93;101318.66;5009727;28;20049;-77
2020/12/18 03:16:14;;;;;;;31.90;19.92;;;;;;;6.38;95.84;101315.13;5000150;28;20052;-75
2020/12/18 03:18:41;;;;;;;31.92;19.27;;;;;;;6.39;96.17;101327.38;5005051;28;20046;-76
2020/12/18 03:21:08;;;;;;;34.10;20.20;;;;;;;6.40;96.06;101322.97;5013610;28;20041;-76
2020/12/18 03:23:34;;;;;;;32.92;21.02;;;;;;;6.35;95.81;101317.78;5004579;28;20057;-76
2020/12/18 03:26:00;;;;;;;36.67;22.65;;;;;;;6.31;96.18;101308.19;4996514;28;20054;-76
2020/12/18 03:28:27;;;;;;;33.97;21.23;;;;;;;6.30;96.08;101312.59;5013269;28;20042;-76
2020/12/18 03:30:53;;;;;;;32.42;20.17;;;;;;;6.31;96.04;101314.31;5016628;28;20438;-77
2020/12/18 03:33:19;;;;;;;35.60;21.52;;;;;;;6.31;95.93;101309.06;5028662;28;20114;-77
2020/12/18 03:35:46;;;;;;;39.83;21.80;;;;;;;6.30;96.04;101303.81;5021830;28;20105;-78
2020/12/18 03:38:12;;;;;;;37.50;22.50;;;;;;;6.30;95.94;101309.94;5009004;28;20073;-76
2020/12/18 03:40:38;;;;;;;42.58;23.25;;;;;;;6.30;96.01;101314.34;5013898;28;20052;-75
2020/12/18 03:43:05;;;;;;;42.40;24.33;;;;;;;6.31;96.41;101316.09;5013980;28;20131;-77
2020/12/18 03:45:32;;;;;;;40.38;22.75;;;;;;;6.33;95.62;101311.66;5013432;28;20050;-75
2020/12/18 03:47:59;;;;;;;42.53;22.52;;;;;;;6.36;95.89;101308.13;5000758;28;20134;-77
2020/12/18 03:50:25;;;;;;;41.78;23.38;;;;;;;6.34;95.21;101314.28;5023740;28;20046;-78
2020/12/18 03:53:02;;;;;;;40.97;22.95;;;;;;;6.35;95.59;101315.16;5034713;28;20118;-78
2020/12/18 03:55:29;;;;;;;37.40;21.15;;;;;;;6.35;95.35;101315.16;5029719;28;20132;-76
2020/12/18 03:57:55;;;;;;;42.15;22.77;;;;;;;6.30;95.33;101314.34;4994184;28;20065;-74
2020/12/18 04:00:21;;;;;;;43.35;23.00;;;;;;;6.27;96.07;101307.41;5009646;28;20053;-78
2020/12/18 04:02:48;;;;;;;41.72;22.52;;;;;;;6.23;95.75;101313.59;5015921;28;20042;-74
2020/12/18 04:05:14;;;;;;;42.88;23.30;;;;;;;6.13;95.78;101316.38;5014896;28;20060;-77
2020/12/18 04:07:40;;;;;;;47.72;23.80;;;;;;;6.01;96.25;101320.03;4998106;28;20057;-76
2020/12/18 04:10:07;;;;;;;47.20;24.30;;;;;;;5.97;96.20;101313.97;5002394;28;20132;-76
2020/12/18 04:12:33;;;;;;;45.83;25.63;;;;;;;5.93;96.78;101314.88;5001728;28;20051;-76
2020/12/18 04:15:00;;;;;;;44.00;24.98;;;;;;;5.93;96.98;101321.91;5005615;28;20807;-76
2020/12/18 04:17:27;;;;;;;44.65;24.63;;;;;;;5.97;97.10;101320.97;5000836;28;20130;-77
2020/12/18 04:19:53;;;;;;;46.95;25.95;;;;;;;6.00;97.57;101318.28;4997204;28;20042;-78
2020/12/18 04:22:20;;;;;;;50.25;25.77;;;;;;;5.94;97.58;101318.38;5004594;28;20373;-77
2020/12/18 04:24:46;;;;;;;43.15;25.55;;;;;;;5.89;97.68;101328.06;4991829;28;20052;-74
2020/12/18 04:27:13;;;;;;;52.92;27.88;;;;;;;5.86;97.74;101321.06;4995251;28;20145;-76
2020/12/18 04:29:39;;;;;;;49.00;26.75;;;;;;;5.90;98.27;101317.53;5011840;28;20057;-75
2020/12/18 04:32:06;;;;;;;45.35;26.02;;;;;;;5.92;98.24;101320.16;5016767;28;20042;-75
2020/12/18 04:34:32;;;;;;;45.10;25.30;;;;;;;5.92;98.11;101307.88;5023145;28;20053;-75
2020/12/18 04:36:59;;;;;;;47.42;25.40;;;;;;;5.98;98.06;101315.66;5020627;28;20049;-77
2020/12/18 04:39:25;;;;;;;48.78;25.50;;;;;;;5.99;97.72;101314.78;5003170;28;20050;-73
2020/12/18 04:41:52;;;;;;;44.65;24.90;;;;;;;6.05;97.79;101316.47;5009217;28;20046;-76
2020/12/18 04:44:18;;;;;;;39.47;23.58;;;;;;;6.08;97.52;101315.56;5021892;28;20053;-75
2020/12/18 04:46:49;;;;;;;43.88;25.48;;;;;;;6.08;97.23;101315.56;5010318;28;20081;-75
2020/12/18 04:49:16;;;;;;;41.65;24.05;;;;;;;6.09;97.08;101312.91;5001696;28;20149;-76
2020/12/18 04:51:44;;;;;;;41.10;24.00;;;;;;;6.07;97.11;101311.19;5001776;28;20679;-76
2020/12/18 04:54:11;;;;;;;41.95;23.98;;;;;;;6.05;96.94;101313.84;5017407;28;20060;-75
2020/12/18 04:56:39;;;;;;;40.78;22.60;;;;;;;5.99;97.01;101320.03;5013990;28;20054;-76
2020/12/18 04:59:07;;;;;;;40.08;23.17;;;;;;;5.98;97.43;101322.72;5016849;28;20050;-76
2020/12/18 05:01:33;;;;;;;41.42;23.77;;;;;;;5.96;97.29;101328.00;5013584;28;20378;-76
2020/12/18 05:04:01;;;;;;;45.42;23.95;;;;;;;5.97;97.28;101327.09;5010721;28;20081;-76
2020/12/18 05:06:28;;;;;;;41.53;24.20;;;;;;;6.02;97.51;101324.38;4997099;28;20469;-77
2020/12/18 05:08:54;;;;;;;46.05;24.67;;;;;;;6.03;96.71;101328.75;5003222;28;20046;-77
2020/12/18 05:11:26;;;;;;;41.25;23.00;;;;;;;6.05;96.48;101320.84;5003619;28;20058;-76
2020/12/18 05:13:55;;;;;;;47.28;24.27;;;;;;;6.04;96.59;101312.09;5016563;28;20054;-76
2020/12/18 05:16:23;;;;;;;41.78;23.67;;;;;;;6.05;96.64;101315.59;5009589;28;20053;-75
2020/12/18 05:18:51;;;;;;;45.20;23.65;;;;;;;6.03;96.36;101320.00;5003602;28;20052;-75
2020/12/18 05:21:18;;;;;;;46.92;25.55;;;;;;;6.01;96.88;101327.03;5014795;28;20050;-74
2020/12/18 05:24:00;;;;;;;48.55;24.42;;;;;;;5.97;96.63;101329.72;5016274;28;20112;-75
2020/12/18 05:26:30;;;;;;;50.28;25.58;;;;;;;5.96;97.18;101335.88;5010026;28;20413;-76
2020/12/18 05:29:08;;;;;;;50.45;25.90;;;;;;;5.97;97.37;101327.09;4987691;28;20129;-75
2020/12/18 05:31:34;;;;;;;45.83;24.42;;;;;;;5.96;97.11;101322.72;5012873;28;20049;-77
2020/12/18 05:34:03;;;;;;;45.35;23.98;;;;;;;5.96;97.13;101335.88;5014693;28;20065;-77
2020/12/18 05:36:30;;;;;;;42.88;23.90;;;;;;;5.96;97.63;101337.63;5015671;28;20050;-77
2020/12/18 05:38:56;;;;;;;47.20;24.55;;;;;;;5.97;97.32;101348.13;5015163;28;20061;-76
2020/12/18 05:41:25;;;;;;;43.88;23.45;;;;;;;5.97;97.41;101342.00;5009384;28;20061;-77
2020/12/18 05:43:52;;;;;;;50.17;25.23;;;;;;;5.99;97.27;101343.69;5016771;28;20054;-76
2020/12/18 05:46:20;;;;;;;49.00;25.40;;;;;;;5.98;96.88;101338.50;4995557;28;20141;-77
2020/12/18 05:49:13;;;;;;;60.88;28.80;;;;;;;6.04;96.98;101338.38;4995854;28;20136;-75
2020/12/18 05:51:41;;;;;;;49.97;25.83;;;;;;;6.06;96.85;101343.63;5003466;28;20054;-75
2020/12/18 05:54:18;;;;;;;50.28;26.33;;;;;;;6.02;96.56;101347.19;5014921;28;20161;-75
2020/12/18 05:56:47;;;;;;;56.45;25.92;;;;;;;6.01;96.75;101346.31;5014367;28;20049;-75
2020/12/18 05:59:16;;;;;;;54.30;27.60;;;;;;;5.99;96.33;101342.81;5000078;28;20401;-75
2020/12/18 06:01:46;;;;;;;53.17;26.45;;;;;;;6.02;96.74;101341.91;5002360;28;20073;-76
2020/12/18 06:04:17;;;;;;;49.75;25.85;;;;;;;6.01;96.46;101342.81;5005811;28;20046;-75
2020/12/18 06:06:48;;;;;;;50.97;26.92;;;;;;;5.97;96.60;101344.63;4998732;28;20054;-78
2020/12/18 06:09:17;;;;;;;58.35;28.05;;;;;;;5.90;96.52;101343.81;5005633;28;20062;-76
2020/12/18 06:11:44;;;;;;;56.17;28.65;;;;;;;5.85;96.73;101345.59;5007391;28;20050;-76
2020/12/18 06:14:13;;;;;;;62.72;31.40;;;;;;;5.84;97.08;101354.38;5013672;28;20054;-75
2020/12/18 06:16:50;;;;;;;69.65;30.83;;;;;;;5.81;97.63;101348.31;5010158;28;20125;-76
2020/12/18 06:19:18;;;;;;;62.55;31.13;;;;;;;5.82;97.78;101353.56;5014503;28;20092;-75
2020/12/18 06:21:57;;;;;;;68.35;31.98;;;;;;;5.85;97.94;101345.59;5007096;28;20053;-77
2020/12/18 06:24:41;;;;;;;63.00;31.38;;;;;;;5.93;98.29;101346.44;5007450;28;20046;-78
2020/12/18 06:27:13;;;;;;;69.05;32.47;;;;;;;6.02;98.52;101345.41;5002574;28;20586;-75
2020/12/18 06:29:40;;;;;;;67.60;32.78;;;;;;;6.06;98.21;101339.25;5010907;28;20140;-77
2020/12/18 06:32:20;;;;;;;69.55;32.70;;;;;;;6.11;98.16;101336.56;5011153;28;20049;-76
2020/12/18 06:34:47;;;;;;;61.35;31.17;;;;;;;6.16;98.08;101337.34;5013525;28;20173;-77
2020/12/18 06:37:32;;;;;;;56.50;28.83;;;;;;;6.15;97.92;101340.88;5014913;28;20401;-76
2020/12/18 06:39:59;;;;;;;64.95;32.35;;;;;;;6.11;97.33;101334.81;5011041;28;20058;-76
2020/12/18 06:42:28;;;;;;;66.65;33.47;;;;;;;6.03;97.53;101331.38;5011183;28;20052;-76
2020/12/18 06:44:57;;;;;;;65.45;32.50;;;;;;;6.02;97.25;101340.16;5008088;28;20050;-75
2020/12/18 06:47:26;;;;;;;65.88;32.55;;;;;;;6.08;97.64;101341.84;5019697;28;20051;-76
2020/12/18 06:49:58;;;;;;;62.10;30.67;;;;;;;6.05;97.69;101331.38;5016739;28;20046;-77
2020/12/18 06:52:43;;;;;;;58.90;30.77;;;;;;;5.98;97.56;101336.69;5017637;28;20379;-74
2020/12/18 06:55:24;;;;;;;58.70;31.02;;;;;;;5.97;97.72;101339.38;5003901;28;20050;-74
2020/12/18 06:58:06;;;;;;;60.22;31.92;;;;;;;5.98;97.70;101344.59;5000779;28;20050;-75
2020/12/18 07:00:39;;;;;;;53.33;29.33;;;;;;;5.97;97.61;101342.88;5015571;28;20046;-77
2020/12/18 07:03:05;;;;;;;51.45;28.33;;;;;;;5.95;97.50;101342.03;5011066;28;20064;-77
2020/12/18 07:05:40;;;;;;;50.72;28.23;;;;;;;5.96;97.31;101348.16;5013289;28;20046;-76
2020/12/18 07:08:15;;;;;;;50.08;28.15;;;;;;;5.93;97.37;101341.16;5011490;28;20050;-77
2020/12/18 07:10:45;;;;;;;51.08;28.88;;;;;;;5.95;97.29;101352.53;5012918;28;20185;-75
2020/12/18 07:13:18;;;;;;;58.08;30.17;;;;;;;5.89;97.49;101338.59;5014171;28;20049;-75
2020/12/18 07:15:48;;;;;;;56.20;32.38;;;;;;;5.93;97.86;101333.28;5013605;28;20412;-76
2020/12/18 07:18:35;;;;;;;57.55;29.65;;;;;;;5.98;97.37;101347.22;5007359;28;20569;-76
2020/12/18 07:21:05;;;;;;;47.38;27.88;;;;;;;5.95;97.14;101343.78;5013312;28;20053;-77
2020/12/18 07:23:32;;;;;;;58.15;29.35;;;;;;;5.88;97.05;101345.59;5009419;28;20054;-76
2020/12/18 07:26:00;;;;;;;53.17;27.60;;;;;;;5.86;97.40;101339.47;5007939;28;20054;-75
2020/12/18 07:28:28;;;;;;;50.97;25.35;;;;;;;5.78;97.12;101338.69;5008797;28;20077;-75
2020/12/18 07:30:57;;;;;;;45.53;24.45;;;;;;;5.75;96.76;101337.84;5015351;28;20048;-77
2020/12/18 07:33:24;;;;;;;45.28;24.50;;;;;;;5.74;96.38;101341.38;5014873;28;20049;-76
2020/12/18 07:35:53;;;;;;;46.80;24.65;;;;;;;5.73;96.30;101340.50;5013867;28;20046;-77
2020/12/18 07:38:27;;;;;;;46.63;24.15;;;;;;;5.76;96.56;101345.72;4998996;28;20058;-77
2020/12/18 07:40:55;;;;;;;44.63;23.33;;;;;;;5.78;96.24;101349.22;5023352;28;20500;-75
2020/12/18 07:43:27;;;;;;;46.83;23.77;;;;;;;5.82;96.59;101350.06;5015563;28;20053;-75
2020/12/18 07:45:55;;;;;;;48.20;25.70;;;;;;;5.82;96.35;101357.94;5012288;28;20050;-77
2020/12/18 07:48:27;;;;;;;48.25;26.17;;;;;;;5.83;96.69;101367.53;5010639;28;20121;-77
2020/12/18 07:51:06;;;;;;;48.30;26.55;;;;;;;5.76;95.88;101356.25;5021907;28;20076;-76
2020/12/18 07:53:42;;;;;;;44.38;23.92;;;;;;;5.86;96.76;101360.50;5017855;28;20046;-78
2020/12/18 07:56:16;;;;;;;47.40;24.50;;;;;;;5.89;96.48;101357.00;4994626;28;20077;-75
2020/12/18 07:58:54;;;;;;;43.45;24.13;;;;;;;5.91;96.33;101360.47;5014933;28;20069;-75
2020/12/18 08:01:30;;;;;;;49.75;24.55;;;;;;;5.95;96.31;101357.78;5009813;28;20046;-77
2020/12/18 08:04:01;;;;;;;54.80;26.75;;;;;;;5.91;95.43;101355.22;5003481;28;20060;-78
2020/12/18 08:06:30;;;;;;;60.97;27.23;;;;;;;5.86;95.49;101347.34;4996454;28;20061;-77
2020/12/18 08:09:04;;;;;;;57.70;25.90;;;;;;;5.85;95.70;101352.63;5007426;28;20136;-75
2020/12/18 08:11:32;;;;;;;56.63;27.52;;;;;;;5.76;95.98;101350.97;5007765;28;20054;-75
2020/12/18 08:14:00;;;;;;;55.85;25.83;;;;;;;5.73;96.29;101351.03;5005412;28;20051;-78
2020/12/18 08:16:29;;;;;;;56.08;27.40;;;;;;;5.68;96.01;101355.44;5004956;28;20508;-76
2020/12/18 08:18:58;;;;;;;62.08;30.13;;;;;;;5.63;96.46;101349.41;5009345;28;20056;-75
2020/12/18 08:21:26;;;;;;;60.72;28.60;;;;;;;5.59;96.20;101352.94;5007623;28;20050;-76
2020/12/18 08:24:25;;;;;;;56.92;28.23;;;;;;;5.62;97.03;101361.66;5011890;28;20072;-75
2020/12/18 08:27:00;;;;;;;62.15;28.80;;;;;;;5.71;96.95;101365.94;5005781;28;20127;-76
2020/12/18 08:29:31;;;;;;;58.38;28.10;;;;;;;5.85;96.82;101356.13;5009765;28;20140;-75
2020/12/18 08:32:00;;;;;;;54.63;27.25;;;;;;;5.94;95.54;101356.06;5005357;28;20168;-77
2020/12/18 08:34:29;;;;;;;54.38;26.38;;;;;;;5.95;95.29;101362.19;5007506;28;20084;-75
2020/12/18 08:36:57;;;;;;;62.25;27.50;;;;;;;5.89;94.60;101362.25;4996808;28;20638;-76
2020/12/18 08:39:31;;;;;;;58.92;27.95;;;;;;;5.83;95.21;101363.16;5008199;28;20458;-76
2020/12/18 08:41:58;;;;;;;64.97;29.42;;;;;;;5.82;95.25;101355.31;5003416;28;20039;-73
2020/12/18 08:44:28;;;;;;;60.25;29.17;;;;;;;5.83;95.28;101350.00;5023507;28;20026;-79
2020/12/18 08:46:58;;;;;;;65.80;29.15;;;;;;;5.87;95.63;101349.09;5035875;28;20058;-79
2020/12/18 08:49:27;;;;;;;65.50;28.30;;;;;;;5.96;95.42;101349.03;5021190;28;20046;-76
2020/12/18 08:52:03;;;;;;;58.65;27.08;;;;;;;5.96;94.85;101354.28;5010323;28;20080;-78
2020/12/18 08:54:35;;;;;;;64.47;27.40;;;;;;;5.91;95.07;101356.09;5010337;28;20058;-76
2020/12/18 08:57:24;;;;;;;59.88;27.33;;;;;;;5.90;94.71;101364.88;4986310;28;20039;-77
2020/12/18 08:59:56;;;;;;;66.07;29.48;;;;;;;5.88;94.91;101364.00;5022917;28;20069;-75
2020/12/18 09:02:33;;;;;;;61.38;27.63;;;;;;;5.88;95.01;101366.63;5016829;28;20069;-78
2020/12/18 09:05:10;;;;;;;66.32;28.60;;;;;;;5.92;95.14;101357.81;5016751;28;20076;-76
2020/12/18 09:07:42;;;;;;;61.03;28.80;;;;;;;6.04;96.03;101362.06;5009108;28;20054;-76
2020/12/18 09:10:11;;;;;;;63.22;28.00;;;;;;;6.04;96.30;101355.91;5004625;28;20056;-76
2020/12/18 09:12:44;;;;;;;63.78;27.50;;;;;;;6.08;95.55;101361.13;4999619;28;20039;-76
2020/12/18 09:15:29;;;;;;;62.20;27.15;;;;;;;6.16;95.37;101367.13;5001212;28;20131;-77
2020/12/18 09:17:58;;;;;;;55.65;25.67;;;;;;;6.24;94.55;101367.06;4997992;28;20054;-77
2020/12/18 09:20:26;;;;;;;54.95;25.55;;;;;;;6.20;94.08;101363.59;4994778;28;20050;-75
2020/12/18 09:23:03;;;;;;;61.80;28.10;;;;;;;6.19;93.92;101356.59;5000517;28;20042;-76
2020/12/18 09:25:34;;;;;;;57.10;25.60;;;;;;;6.26;94.36;101357.38;4999540;28;20894;-76
2020/12/18 09:28:01;;;;;;;59.13;25.70;;;;;;;6.19;94.25;101355.72;5005755;28;20082;-75
2020/12/18 09:30:30;;;;;;;60.13;25.40;;;;;;;6.18;94.17;101353.97;5005333;28;20068;-76
2020/12/18 09:33:10;;;;;;;53.85;24.60;;;;;;;6.10;94.17;101366.38;5002645;28;20052;-77
2020/12/18 09:35:37;;;;;;;58.65;24.92;;;;;;;6.07;94.34;101361.16;5004440;28;20057;-76
2020/12/18 09:38:04;;;;;;;53.88;23.95;;;;;;;6.05;94.33;101366.41;5005208;28;20061;-77
2020/12/18 09:40:31;;;;;;;55.05;23.70;;;;;;;6.05;94.59;101368.19;5006233;28;20042;-76
2020/12/18 09:42:58;;;;;;;55.53;23.98;;;;;;;6.20;95.00;101357.47;5011285;28;20046;-76
2020/12/18 09:45:38;;;;;;;;;;;;;;;6.39;94.94;101358.94;5008449;28;20073;-78
2020/12/18 09:48:05;;;;;;;51.50;23.77;;;;;;;6.39;93.57;101353.69;5000643;28;19929;-78
2020/12/18 09:50:31;;;;;;;58.28;25.40;;;;;;;6.44;93.56;101346.59;5006997;28;20057;-83
2020/12/18 09:52:57;;;;;;;47.03;24.05;;;;;;;6.51;93.47;101353.50;5011282;28;20049;-76
2020/12/18 09:55:24;;;;;;;52.70;24.25;;;;;;;6.56;92.83;101346.41;5008118;28;20468;-74
2020/12/18 09:57:51;;;;;;;52.08;24.42;;;;;;;6.48;92.71;101343.00;5004424;28;20417;-75
2020/12/18 10:00:17;;;;;;;47.45;22.85;;;;;;;6.50;93.35;101343.00;5009335;28;20488;-77
2020/12/18 10:02:44;;;;;;;46.83;22.48;;;;;;;6.55;93.33;101342.03;5008393;28;20071;-77
2020/12/18 10:05:10;;;;;;;44.38;22.17;;;;;;;6.58;93.12;101334.09;5010665;28;20054;-77
2020/12/18 10:07:37;;;;;;;45.85;22.58;;;;;;;6.62;92.61;101341.03;5010522;28;20072;-77
2020/12/18 10:10:04;;;;;;;50.10;23.10;;;;;;;6.46;91.77;101339.53;5007517;28;20048;-77
2020/12/18 10:12:30;;;;;;;50.42;22.63;;;;;;;6.36;92.78;101340.56;5008900;28;20050;-79
2020/12/18 10:14:57;;;;;;;51.05;22.52;;;;;;;6.38;93.49;101336.16;5003288;28;20052;-78
2020/12/18 10:17:23;;;;;;;53.35;23.15;;;;;;;6.29;93.58;101325.78;5004596;28;20046;-79
2020/12/18 10:19:51;;;;;;;49.13;22.83;;;;;;;6.27;93.89;101327.56;5008254;28;20050;-76
2020/12/18 10:22:18;;;;;;;44.22;20.40;;;;;;;6.37;93.99;101321.25;5011908;28;20493;-77
2020/12/18 10:24:45;;;;;;;46.17;20.55;;;;;;;6.50;93.52;101319.31;5005968;28;20060;-78
2020/12/18 10:27:12;;;;;;;45.30;21.48;;;;;;;6.53;93.30;101317.50;5011471;28;20113;-79
2020/12/18 10:29:39;;;;;;;43.05;21.13;;;;;;;6.62;92.85;101319.09;5009684;28;20129;-77
2020/12/18 10:32:06;;;;;;;45.90;20.60;;;;;;;6.65;92.75;101324.31;5002723;28;20046;-76
2020/12/18 10:34:32;;;;;;;50.28;21.95;;;;;;;6.66;92.70;101318.16;5004791;28;20055;-76
2020/12/18 10:36:59;;;;;;;49.67;21.05;;;;;;;6.72;92.82;101317.22;5004543;28;20046;-76
2020/12/18 10:39:25;;;;;;;50.88;22.13;;;;;;;6.72;92.10;101320.72;5007921;28;20056;-78
2020/12/18 10:41:53;;;;;;;50.15;22.10;;;;;;;6.73;92.17;101311.06;5007387;28;20096;-78
2020/12/18 10:44:20;;;;;;;49.88;21.92;;;;;;;6.74;92.14;101307.53;5001092;28;20069;-76
2020/12/18 10:46:47;;;;;;;42.65;20.33;;;;;;;6.78;91.75;101310.06;5005228;28;20058;-77
2020/12/18 10:49:14;;;;;;;47.58;22.15;;;;;;;6.77;92.58;101302.22;4991088;28;20052;-76
2020/12/18 10:51:41;;;;;;;49.17;21.23;;;;;;;6.81;92.11;101303.88;4989765;28;20448;-76
2020/12/18 10:54:09;;;;;;;40.92;20.60;;;;;;;6.83;91.90;101302.97;5010109;28;20038;-77
2020/12/18 10:56:43;;;;;;;43.97;21.02;;;;;;;6.79;91.76;101285.47;5005768;28;20096;-76
2020/12/18 10:59:10;;;;;;;42.58;20.63;;;;;;;6.80;91.94;101279.31;5004146;28;20061;-78
2020/12/18 11:01:38;;;;;;;42.38;21.70;;;;;;;6.85;91.73;101274.00;5016101;28;20048;-75
2020/12/18 11:04:05;;;;;;;48.78;21.02;;;;;;;6.88;92.13;101274.81;5015149;28;20046;-75
2020/12/18 11:06:37;;;;;;;47.00;21.38;;;;;;;6.93;92.13;101272.94;5015965;28;20624;-76
2020/12/18 11:09:05;;;;;;;42.25;21.00;;;;;;;6.95;91.20;101265.00;5009934;28;20054;-75
2020/12/18 11:11:31;;;;;;;52.20;22.65;;;;;;;6.95;91.03;101265.00;5011069;28;20060;-74
2020/12/18 11:13:58;;;;;;;43.20;20.92;;;;;;;6.94;90.15;101269.41;5010695;28;20139;-76
2020/12/18 11:16:27;;;;;;;47.60;21.90;;;;;;;6.95;90.67;101265.00;5010392;28;20049;-77
2020/12/18 11:18:53;;;;;;;46.88;21.75;;;;;;;6.95;91.22;101254.47;5015152;28;20054;-76
2020/12/18 11:21:20;;;;;;;47.05;20.65;;;;;;;6.98;90.55;101259.69;5016246;28;20069;-75
2020/12/18 11:23:46;;;;;;;45.78;21.95;;;;;;;6.98;90.29;101263.19;5011113;28;20118;-77
2020/12/18 11:26:13;;;;;;;45.22;21.73;;;;;;;6.93;90.74;101258.91;5000769;28;20050;-76
2020/12/18 11:28:39;;;;;;;47.13;22.15;;;;;;;6.94;91.19;101256.25;5009935;28;20056;-77
2020/12/18 11:31:05;;;;;;;48.65;23.02;;;;;;;6.96;91.05;101266.75;5007346;28;20047;-75